sensor_id;sensor_type;location;lat;lon;timestamp;P1;durP1;ratioP1;P2;durP2;ratioP2
64932;SDS011;51446;53.850;10.662;2022-09-13T00:01:28;4.73;;;2.50;;
64932;SDS011;51446;53.850;10.662;2022-09-13T00:03:53;2.60;;;2.40;;
64932;SDS011;51446;53.850;10.662;2022-09-13T00:06:19;3.20;;;2.80;;
64932;SDS011;51446;53.850;10.662;2022-09-13T00:08:45;2.70;;;2.50;;
64932;SDS011;51446;53.850;10.662;2022-09-13T00:11:15;3.97;;;2.90;;
64932;SDS011;51446;53.850;10.662;2022-09-13T00:13:43;2.70;;;2.50;;
64932;SDS011;51446;53.850;10.662;2022-09-13T00:16:10;3.30;;;2.73;;
64932;SDS011;51446;53.850;10.662;2022-09-13T00:18:37;3.45;;;2.88;;
64932;SDS011;51446;53.850;10.662;2022-09-13T00:21:03;3.00;;;2.70;;
64932;SDS011;51446;53.850;10.662;2022-09-13T00:23:29;3.90;;;2.85;;
64932;SDS011;51446;53.850;10.662;2022-09-13T00:26:01;2.83;;;2.50;;
64932;SDS011;51446;53.850;10.662;2022-09-13T00:28:30;3.67;;;2.90;;
64932;SDS011;51446;53.850;10.662;2022-09-13T00:30:59;2.93;;;2.70;;
64932;SDS011;51446;53.850;10.662;2022-09-13T00:33:26;4.07;;;2.70;;
64932;SDS011;51446;53.850;10.662;2022-09-13T00:35:51;3.60;;;2.77;;
64932;SDS011;51446;53.850;10.662;2022-09-13T00:38:16;3.33;;;2.63;;
64932;SDS011;51446;53.850;10.662;2022-09-13T00:40:42;4.53;;;2.80;;
64932;SDS011;51446;53.850;10.662;2022-09-13T00:43:15;3.40;;;2.70;;
64932;SDS011;51446;53.850;10.662;2022-09-13T00:45:43;3.65;;;2.55;;
64932;SDS011;51446;53.850;10.662;2022-09-13T00:48:09;3.55;;;2.30;;
64932;SDS011;51446;53.850;10.662;2022-09-13T00:50:44;2.70;;;2.33;;
64932;SDS011;51446;53.850;10.662;2022-09-13T00:53:15;6.13;;;2.70;;
64932;SDS011;51446;53.850;10.662;2022-09-13T00:55:54;3.40;;;2.60;;
64932;SDS011;51446;53.850;10.662;2022-09-13T00:59:05;2.97;;;2.38;;
64932;SDS011;51446;53.850;10.662;2022-09-13T01:01:13;2.95;;;2.65;;
64932;SDS011;51446;53.850;10.662;2022-09-13T01:03:40;4.47;;;2.85;;
64932;SDS011;51446;53.850;10.662;2022-09-13T01:06:09;2.93;;;2.60;;
64932;SDS011;51446;53.850;10.662;2022-09-13T01:08:38;3.00;;;2.70;;
64932;SDS011;51446;53.850;10.662;2022-09-13T01:11:09;5.28;;;3.25;;
64932;SDS011;51446;53.850;10.662;2022-09-13T01:13:39;4.90;;;2.97;;
64932;SDS011;51446;53.850;10.662;2022-09-13T01:16:05;3.97;;;3.30;;
64932;SDS011;51446;53.850;10.662;2022-09-13T01:18:30;3.80;;;3.23;;
64932;SDS011;51446;53.850;10.662;2022-09-13T01:27:00;4.00;;;3.20;;
64932;SDS011;51446;53.850;10.662;2022-09-13T01:30:02;4.95;;;3.30;;
64932;SDS011;51446;53.850;10.662;2022-09-13T01:38:15;4.07;;;3.38;;
64932;SDS011;51446;53.850;10.662;2022-09-13T01:41:03;3.75;;;3.33;;
64932;SDS011;51446;53.850;10.662;2022-09-13T01:46:45;4.68;;;3.30;;
64932;SDS011;51446;53.850;10.662;2022-09-13T01:49:18;4.17;;;3.50;;
64932;SDS011;51446;53.850;10.662;2022-09-13T01:51:59;4.18;;;3.75;;
64932;SDS011;51446;53.850;10.662;2022-09-13T01:54:37;3.92;;;3.60;;
64932;SDS011;51446;53.850;10.662;2022-09-13T01:57:16;8.38;;;4.20;;
64932;SDS011;51446;53.850;10.662;2022-09-13T02:00:20;5.15;;;4.20;;
64932;SDS011;51446;53.850;10.662;2022-09-13T02:02:47;4.73;;;4.10;;
64932;SDS011;51446;53.850;10.662;2022-09-13T02:05:21;4.38;;;3.97;;
64932;SDS011;51446;53.850;10.662;2022-09-13T02:07:56;7.60;;;4.25;;
64932;SDS011;51446;53.850;10.662;2022-09-13T02:10:30;6.13;;;4.22;;
64932;SDS011;51446;53.850;10.662;2022-09-13T02:13:00;5.45;;;4.20;;
64932;SDS011;51446;53.850;10.662;2022-09-13T02:15:33;5.17;;;4.67;;
64932;SDS011;51446;53.850;10.662;2022-09-13T02:18:13;7.47;;;4.20;;
64932;SDS011;51446;53.850;10.662;2022-09-13T02:20:44;5.10;;;3.92;;
64932;SDS011;51446;53.850;10.662;2022-09-13T02:23:14;4.95;;;3.72;;
64932;SDS011;51446;53.850;10.662;2022-09-13T02:25:45;4.43;;;3.90;;
64932;SDS011;51446;53.850;10.662;2022-09-13T02:28:13;4.03;;;3.63;;
64932;SDS011;51446;53.850;10.662;2022-09-13T02:30:45;5.38;;;3.90;;
64932;SDS011;51446;53.850;10.662;2022-09-13T02:33:17;4.97;;;3.67;;
64932;SDS011;51446;53.850;10.662;2022-09-13T02:35:56;3.83;;;3.42;;
64932;SDS011;51446;53.850;10.662;2022-09-13T02:38:30;5.90;;;3.83;;
64932;SDS011;51446;53.850;10.662;2022-09-13T02:41:05;4.30;;;3.90;;
64932;SDS011;51446;53.850;10.662;2022-09-13T02:43:45;3.78;;;3.47;;
64932;SDS011;51446;53.850;10.662;2022-09-13T02:49:15;4.50;;;4.05;;
64932;SDS011;51446;53.850;10.662;2022-09-13T02:52:06;6.25;;;3.88;;
64932;SDS011;51446;53.850;10.662;2022-09-13T02:54:44;4.97;;;3.80;;
64932;SDS011;51446;53.850;10.662;2022-09-13T02:57:27;5.53;;;4.10;;
64932;SDS011;51446;53.850;10.662;2022-09-13T02:59:57;4.93;;;4.18;;
64932;SDS011;51446;53.850;10.662;2022-09-13T03:02:24;6.38;;;4.10;;
64932;SDS011;51446;53.850;10.662;2022-09-13T03:04:53;6.32;;;4.05;;
64932;SDS011;51446;53.850;10.662;2022-09-13T03:07:18;5.93;;;4.23;;
64932;SDS011;51446;53.850;10.662;2022-09-13T03:09:48;9.60;;;3.97;;
64932;SDS011;51446;53.850;10.662;2022-09-13T03:15:12;6.00;;;4.40;;
64932;SDS011;51446;53.850;10.662;2022-09-13T03:20:40;6.05;;;4.20;;
64932;SDS011;51446;53.850;10.662;2022-09-13T03:23:17;5.40;;;4.55;;
64932;SDS011;51446;53.850;10.662;2022-09-13T03:28:52;5.40;;;4.50;;
64932;SDS011;51446;53.850;10.662;2022-09-13T03:31:30;5.97;;;4.50;;
64932;SDS011;51446;53.850;10.662;2022-09-13T03:34:06;5.43;;;4.50;;
64932;SDS011;51446;53.850;10.662;2022-09-13T03:36:39;5.38;;;4.70;;
64932;SDS011;51446;53.850;10.662;2022-09-13T03:41:54;6.72;;;4.68;;
64932;SDS011;51446;53.850;10.662;2022-09-13T03:44:24;6.10;;;5.03;;
64932;SDS011;51446;53.850;10.662;2022-09-13T03:46:53;6.45;;;4.95;;
64932;SDS011;51446;53.850;10.662;2022-09-13T03:49:22;6.13;;;5.10;;
64932;SDS011;51446;53.850;10.662;2022-09-13T03:51:49;8.17;;;5.23;;
64932;SDS011;51446;53.850;10.662;2022-09-13T03:54:18;6.13;;;5.00;;
64932;SDS011;51446;53.850;10.662;2022-09-13T03:59:32;7.60;;;4.90;;
64932;SDS011;51446;53.850;10.662;2022-09-13T04:01:57;5.97;;;4.73;;
64932;SDS011;51446;53.850;10.662;2022-09-13T04:04:22;6.07;;;5.17;;
64932;SDS011;51446;53.850;10.662;2022-09-13T04:06:48;10.00;;;5.27;;
64932;SDS011;51446;53.850;10.662;2022-09-13T04:09:13;6.40;;;4.93;;
64932;SDS011;51446;53.850;10.662;2022-09-13T04:11:38;6.97;;;5.10;;
64932;SDS011;51446;53.850;10.662;2022-09-13T04:14:05;7.78;;;5.35;;
64932;SDS011;51446;53.850;10.662;2022-09-13T04:16:30;6.27;;;4.87;;
64932;SDS011;51446;53.850;10.662;2022-09-13T04:18:55;7.10;;;5.27;;
64932;SDS011;51446;53.850;10.662;2022-09-13T04:21:21;6.53;;;5.43;;
64932;SDS011;51446;53.850;10.662;2022-09-13T04:23:48;7.53;;;5.07;;
64932;SDS011;51446;53.850;10.662;2022-09-13T04:26:13;6.85;;;5.38;;
64932;SDS011;51446;53.850;10.662;2022-09-13T04:28:39;7.27;;;5.13;;
64932;SDS011;51446;53.850;10.662;2022-09-13T04:31:04;7.00;;;5.37;;
64932;SDS011;51446;53.850;10.662;2022-09-13T04:33:29;7.03;;;5.87;;
64932;SDS011;51446;53.850;10.662;2022-09-13T04:35:58;7.30;;;5.80;;
64932;SDS011;51446;53.850;10.662;2022-09-13T04:38:24;8.32;;;5.78;;
64932;SDS011;51446;53.850;10.662;2022-09-13T04:40:55;7.50;;;6.13;;
64932;SDS011;51446;53.850;10.662;2022-09-13T04:43:21;8.02;;;5.63;;
64932;SDS011;51446;53.850;10.662;2022-09-13T04:45:47;10.83;;;6.77;;
64932;SDS011;51446;53.850;10.662;2022-09-13T04:48:12;7.97;;;6.75;;
64932;SDS011;51446;53.850;10.662;2022-09-13T04:50:38;8.33;;;6.80;;
64932;SDS011;51446;53.850;10.662;2022-09-13T04:53:03;8.97;;;6.57;;
64932;SDS011;51446;53.850;10.662;2022-09-13T04:55:29;10.13;;;7.70;;
64932;SDS011;51446;53.850;10.662;2022-09-13T04:57:54;11.57;;;7.70;;
64932;SDS011;51446;53.850;10.662;2022-09-13T05:00:20;10.05;;;7.60;;
64932;SDS011;51446;53.850;10.662;2022-09-13T05:02:46;10.80;;;8.17;;
64932;SDS011;51446;53.850;10.662;2022-09-13T05:05:11;13.10;;;8.43;;
64932;SDS011;51446;53.850;10.662;2022-09-13T05:07:36;12.57;;;8.73;;
64932;SDS011;51446;53.850;10.662;2022-09-13T05:10:01;11.73;;;8.90;;
64932;SDS011;51446;53.850;10.662;2022-09-13T05:12:27;12.45;;;8.90;;
64932;SDS011;51446;53.850;10.662;2022-09-13T05:14:52;13.83;;;9.30;;
64932;SDS011;51446;53.850;10.662;2022-09-13T05:17:17;15.03;;;9.10;;
64932;SDS011;51446;53.850;10.662;2022-09-13T05:19:42;11.87;;;8.77;;
64932;SDS011;51446;53.850;10.662;2022-09-13T05:22:08;12.70;;;9.40;;
64932;SDS011;51446;53.850;10.662;2022-09-13T05:24:34;16.60;;;10.07;;
64932;SDS011;51446;53.850;10.662;2022-09-13T05:26:59;13.00;;;9.40;;
64932;SDS011;51446;53.850;10.662;2022-09-13T05:29:24;15.17;;;9.87;;
64932;SDS011;51446;53.850;10.662;2022-09-13T05:31:49;18.87;;;11.63;;
64932;SDS011;51446;53.850;10.662;2022-09-13T05:34:15;22.87;;;11.17;;
64932;SDS011;51446;53.850;10.662;2022-09-13T05:36:43;19.25;;;12.02;;
64932;SDS011;51446;53.850;10.662;2022-09-13T05:39:13;17.43;;;11.27;;
64932;SDS011;51446;53.850;10.662;2022-09-13T05:41:41;21.63;;;12.23;;
64932;SDS011;51446;53.850;10.662;2022-09-13T05:44:07;20.23;;;13.10;;
64932;SDS011;51446;53.850;10.662;2022-09-13T05:46:32;19.73;;;12.37;;
64932;SDS011;51446;53.850;10.662;2022-09-13T05:48:57;20.97;;;13.23;;
64932;SDS011;51446;53.850;10.662;2022-09-13T05:51:23;26.73;;;14.40;;
64932;SDS011;51446;53.850;10.662;2022-09-13T05:53:50;19.10;;;12.73;;
64932;SDS011;51446;53.850;10.662;2022-09-13T05:56:21;21.08;;;13.63;;
64932;SDS011;51446;53.850;10.662;2022-09-13T05:58:49;21.85;;;13.43;;
64932;SDS011;51446;53.850;10.662;2022-09-13T06:01:16;23.33;;;14.43;;
64932;SDS011;51446;53.850;10.662;2022-09-13T06:03:47;22.23;;;14.07;;
64932;SDS011;51446;53.850;10.662;2022-09-13T06:06:13;23.10;;;13.53;;
64932;SDS011;51446;53.850;10.662;2022-09-13T06:08:39;23.25;;;13.88;;
64932;SDS011;51446;53.850;10.662;2022-09-13T06:11:06;21.13;;;13.17;;
64932;SDS011;51446;53.850;10.662;2022-09-13T06:13:33;22.40;;;13.30;;
64932;SDS011;51446;53.850;10.662;2022-09-13T06:15:59;22.37;;;14.40;;
64932;SDS011;51446;53.850;10.662;2022-09-13T06:18:25;20.83;;;13.88;;
64932;SDS011;51446;53.850;10.662;2022-09-13T06:21:02;24.55;;;14.35;;
64932;SDS011;51446;53.850;10.662;2022-09-13T06:23:32;23.77;;;15.88;;
64932;SDS011;51446;53.850;10.662;2022-09-13T06:26:08;25.50;;;15.43;;
64932;SDS011;51446;53.850;10.662;2022-09-13T06:28:35;22.45;;;14.45;;
64932;SDS011;51446;53.850;10.662;2022-09-13T06:31:02;21.02;;;14.13;;
64932;SDS011;51446;53.850;10.662;2022-09-13T06:33:30;25.17;;;14.43;;
64932;SDS011;51446;53.850;10.662;2022-09-13T06:35:59;22.70;;;14.10;;
64932;SDS011;51446;53.850;10.662;2022-09-13T06:38:26;22.38;;;14.93;;
64932;SDS011;51446;53.850;10.662;2022-09-13T06:40:58;26.67;;;15.47;;
64932;SDS011;51446;53.850;10.662;2022-09-13T06:43:31;23.70;;;14.82;;
64932;SDS011;51446;53.850;10.662;2022-09-13T06:46:01;22.33;;;14.30;;
64932;SDS011;51446;53.850;10.662;2022-09-13T06:48:31;20.85;;;12.65;;
64932;SDS011;51446;53.850;10.662;2022-09-13T06:50:59;19.30;;;11.60;;
64932;SDS011;51446;53.850;10.662;2022-09-13T06:53:25;20.23;;;13.10;;
64932;SDS011;51446;53.850;10.662;2022-09-13T06:55:59;21.05;;;12.60;;
64932;SDS011;51446;53.850;10.662;2022-09-13T06:58:25;16.85;;;10.93;;
64932;SDS011;51446;53.850;10.662;2022-09-13T07:00:52;19.50;;;12.00;;
64932;SDS011;51446;53.850;10.662;2022-09-13T07:03:18;17.23;;;10.52;;
64932;SDS011;51446;53.850;10.662;2022-09-13T07:05:43;19.43;;;12.37;;
64932;SDS011;51446;53.850;10.662;2022-09-13T07:08:08;15.83;;;11.23;;
64932;SDS011;51446;53.850;10.662;2022-09-13T07:10:33;19.73;;;11.43;;
64932;SDS011;51446;53.850;10.662;2022-09-13T07:12:58;17.07;;;9.83;;
64932;SDS011;51446;53.850;10.662;2022-09-13T07:15:24;12.37;;;7.50;;
64932;SDS011;51446;53.850;10.662;2022-09-13T07:17:49;13.93;;;8.40;;
64932;SDS011;51446;53.850;10.662;2022-09-13T07:20:14;14.17;;;7.73;;
64932;SDS011;51446;53.850;10.662;2022-09-13T07:22:41;12.98;;;7.32;;
64932;SDS011;51446;53.850;10.662;2022-09-13T07:25:06;15.53;;;8.07;;
64932;SDS011;51446;53.850;10.662;2022-09-13T07:27:32;15.40;;;8.33;;
64932;SDS011;51446;53.850;10.662;2022-09-13T07:29:57;13.00;;;9.07;;
64932;SDS011;51446;53.850;10.662;2022-09-13T07:32:22;21.57;;;9.27;;
64932;SDS011;51446;53.850;10.662;2022-09-13T07:34:47;18.27;;;10.63;;
64932;SDS011;51446;53.850;10.662;2022-09-13T07:37:13;19.67;;;9.40;;
64932;SDS011;51446;53.850;10.662;2022-09-13T07:39:38;17.10;;;9.60;;
64932;SDS011;51446;53.850;10.662;2022-09-13T07:42:03;13.77;;;7.43;;
64932;SDS011;51446;53.850;10.662;2022-09-13T07:44:28;14.67;;;6.70;;
64932;SDS011;51446;53.850;10.662;2022-09-13T07:46:54;10.77;;;5.37;;
64932;SDS011;51446;53.850;10.662;2022-09-13T07:49:19;13.30;;;4.43;;
64932;SDS011;51446;53.850;10.662;2022-09-13T07:51:44;7.13;;;3.92;;
64932;SDS011;51446;53.850;10.662;2022-09-13T07:54:11;9.50;;;4.00;;
64932;SDS011;51446;53.850;10.662;2022-09-13T07:56:39;10.85;;;3.65;;
64932;SDS011;51446;53.850;10.662;2022-09-13T07:59:06;10.05;;;3.85;;
64932;SDS011;51446;53.850;10.662;2022-09-13T08:01:37;7.17;;;3.67;;
64932;SDS011;51446;53.850;10.662;2022-09-13T08:04:04;13.52;;;3.40;;
64932;SDS011;51446;53.850;10.662;2022-09-13T08:06:32;10.45;;;3.47;;
64932;SDS011;51446;53.850;10.662;2022-09-13T08:08:59;10.23;;;2.78;;
64932;SDS011;51446;53.850;10.662;2022-09-13T08:11:28;9.07;;;2.53;;
64932;SDS011;51446;53.850;10.662;2022-09-13T08:13:58;7.53;;;2.08;;
64932;SDS011;51446;53.850;10.662;2022-09-13T08:16:25;8.43;;;2.38;;
64932;SDS011;51446;53.850;10.662;2022-09-13T08:18:52;7.57;;;1.80;;
64932;SDS011;51446;53.850;10.662;2022-09-13T08:21:20;6.93;;;1.30;;
64932;SDS011;51446;53.850;10.662;2022-09-13T08:23:46;5.47;;;1.20;;
64932;SDS011;51446;53.850;10.662;2022-09-13T08:26:12;6.57;;;1.33;;
64932;SDS011;51446;53.850;10.662;2022-09-13T08:28:38;7.90;;;1.40;;
64932;SDS011;51446;53.850;10.662;2022-09-13T08:31:12;5.75;;;1.30;;
64932;SDS011;51446;53.850;10.662;2022-09-13T08:33:42;5.95;;;1.30;;
64932;SDS011;51446;53.850;10.662;2022-09-13T08:36:08;4.57;;;1.00;;
64932;SDS011;51446;53.850;10.662;2022-09-13T08:38:34;3.63;;;1.10;;
64932;SDS011;51446;53.850;10.662;2022-09-13T08:41:01;7.60;;;1.47;;
64932;SDS011;51446;53.850;10.662;2022-09-13T08:43:33;5.90;;;1.30;;
64932;SDS011;51446;53.850;10.662;2022-09-13T08:46:34;4.53;;;1.13;;
64932;SDS011;51446;53.850;10.662;2022-09-13T08:49:06;6.50;;;1.40;;
64932;SDS011;51446;53.850;10.662;2022-09-13T08:51:40;9.10;;;1.42;;
64932;SDS011;51446;53.850;10.662;2022-09-13T08:54:11;5.65;;;1.20;;
64932;SDS011;51446;53.850;10.662;2022-09-13T08:56:50;6.18;;;1.20;;
64932;SDS011;51446;53.850;10.662;2022-09-13T09:02:22;4.07;;;0.87;;
64932;SDS011;51446;53.850;10.662;2022-09-13T09:05:23;6.85;;;1.13;;
64932;SDS011;51446;53.850;10.662;2022-09-13T09:07:51;5.22;;;1.00;;
64932;SDS011;51446;53.850;10.662;2022-09-13T09:12:58;4.18;;;1.13;;
64932;SDS011;51446;53.850;10.662;2022-09-13T09:15:32;5.03;;;1.27;;
64932;SDS011;51446;53.850;10.662;2022-09-13T09:18:10;3.45;;;0.68;;
64932;SDS011;51446;53.850;10.662;2022-09-13T09:20:44;5.72;;;1.00;;
64932;SDS011;51446;53.850;10.662;2022-09-13T09:26:04;4.88;;;1.20;;
64932;SDS011;51446;53.850;10.662;2022-09-13T09:28:39;4.70;;;1.27;;
64932;SDS011;51446;53.850;10.662;2022-09-13T09:31:09;6.73;;;1.00;;
64932;SDS011;51446;53.850;10.662;2022-09-13T09:33:44;9.68;;;1.20;;
64932;SDS011;51446;53.850;10.662;2022-09-13T09:39:24;3.83;;;0.82;;
64932;SDS011;51446;53.850;10.662;2022-09-13T09:41:53;5.40;;;1.10;;
64932;SDS011;51446;53.850;10.662;2022-09-13T09:44:22;7.43;;;1.00;;
64932;SDS011;51446;53.850;10.662;2022-09-13T09:46:55;6.38;;;0.90;;
64932;SDS011;51446;53.850;10.662;2022-09-13T09:52:25;5.45;;;0.90;;
64932;SDS011;51446;53.850;10.662;2022-09-13T09:55:14;6.65;;;0.88;;
64932;SDS011;51446;53.850;10.662;2022-09-13T10:00:18;5.80;;;0.85;;
64932;SDS011;51446;53.850;10.662;2022-09-13T10:02:44;6.43;;;1.42;;
64932;SDS011;51446;53.850;10.662;2022-09-13T10:05:11;4.07;;;0.90;;
64932;SDS011;51446;53.850;10.662;2022-09-13T10:07:38;5.43;;;1.20;;
64932;SDS011;51446;53.850;10.662;2022-09-13T10:10:05;5.40;;;1.00;;
64932;SDS011;51446;53.850;10.662;2022-09-13T10:12:44;4.63;;;1.13;;
64932;SDS011;51446;53.850;10.662;2022-09-13T10:15:15;10.07;;;1.00;;
64932;SDS011;51446;53.850;10.662;2022-09-13T10:20:38;3.72;;;0.70;;
64932;SDS011;51446;53.850;10.662;2022-09-13T10:23:08;7.07;;;1.20;;
64932;SDS011;51446;53.850;10.662;2022-09-13T10:25:41;5.05;;;1.13;;
64932;SDS011;51446;53.850;10.662;2022-09-13T10:28:15;6.35;;;0.98;;
64932;SDS011;51446;53.850;10.662;2022-09-13T10:30:53;6.83;;;1.33;;
64932;SDS011;51446;53.850;10.662;2022-09-13T10:35:57;12.20;;;1.30;;
64932;SDS011;51446;53.850;10.662;2022-09-13T10:38:38;4.82;;;1.00;;
64932;SDS011;51446;53.850;10.662;2022-09-13T10:41:06;5.10;;;1.00;;
64932;SDS011;51446;53.850;10.662;2022-09-13T10:43:35;4.53;;;0.90;;
64932;SDS011;51446;53.850;10.662;2022-09-13T10:46:02;5.80;;;1.35;;
64932;SDS011;51446;53.850;10.662;2022-09-13T10:48:29;7.88;;;1.30;;
64932;SDS011;51446;53.850;10.662;2022-09-13T10:51:17;9.25;;;2.75;;
64932;SDS011;51446;53.850;10.662;2022-09-13T10:56:42;9.83;;;1.40;;
64932;SDS011;51446;53.850;10.662;2022-09-13T10:59:15;8.25;;;1.75;;
64932;SDS011;51446;53.850;10.662;2022-09-13T11:01:43;8.18;;;1.40;;
64932;SDS011;51446;53.850;10.662;2022-09-13T11:07:14;5.30;;;1.30;;
64932;SDS011;51446;53.850;10.662;2022-09-13T11:10:14;9.77;;;1.23;;
64932;SDS011;51446;53.850;10.662;2022-09-13T11:24:23;11.00;;;1.20;;
64932;SDS011;51446;53.850;10.662;2022-09-13T11:26:58;5.90;;;1.13;;
64932;SDS011;51446;53.850;10.662;2022-09-13T11:29:42;10.10;;;1.15;;
64932;SDS011;51446;53.850;10.662;2022-09-13T11:35:01;6.10;;;1.00;;
64932;SDS011;51446;53.850;10.662;2022-09-13T11:40:33;7.28;;;0.85;;
64932;SDS011;51446;53.850;10.662;2022-09-13T11:46:13;10.43;;;1.08;;
64932;SDS011;51446;53.850;10.662;2022-09-13T11:55:14;4.63;;;0.88;;
64932;SDS011;51446;53.850;10.662;2022-09-13T11:57:22;4.45;;;1.08;;
64932;SDS011;51446;53.850;10.662;2022-09-13T11:59:56;5.22;;;0.82;;
64932;SDS011;51446;53.850;10.662;2022-09-13T12:05:23;9.90;;;1.20;;
64932;SDS011;51446;53.850;10.662;2022-09-13T12:08:09;6.47;;;1.05;;
64932;SDS011;51446;53.850;10.662;2022-09-13T12:10:44;6.50;;;1.13;;
64932;SDS011;51446;53.850;10.662;2022-09-13T12:13:25;8.63;;;0.88;;
64932;SDS011;51446;53.850;10.662;2022-09-13T12:15:54;5.68;;;1.13;;
64932;SDS011;51446;53.850;10.662;2022-09-13T12:18:31;6.97;;;1.20;;
64932;SDS011;51446;53.850;10.662;2022-09-13T12:21:05;4.65;;;0.90;;
64932;SDS011;51446;53.850;10.662;2022-09-13T12:23:35;4.60;;;0.82;;
64932;SDS011;51446;53.850;10.662;2022-09-13T12:26:23;4.38;;;0.90;;
64932;SDS011;51446;53.850;10.662;2022-09-13T12:28:58;5.72;;;1.13;;
64932;SDS011;51446;53.850;10.662;2022-09-13T12:31:29;4.63;;;1.07;;
64932;SDS011;51446;53.850;10.662;2022-09-13T12:33:55;6.78;;;1.02;;
64932;SDS011;51446;53.850;10.662;2022-09-13T12:42:24;6.25;;;1.05;;
64932;SDS011;51446;53.850;10.662;2022-09-13T12:47:56;4.65;;;1.00;;
64932;SDS011;51446;53.850;10.662;2022-09-13T12:50:43;5.70;;;0.93;;
64932;SDS011;51446;53.850;10.662;2022-09-13T12:59:30;4.43;;;0.80;;
64932;SDS011;51446;53.850;10.662;2022-09-13T13:02:21;5.53;;;1.35;;
64932;SDS011;51446;53.850;10.662;2022-09-13T13:04:51;4.15;;;1.00;;
64932;SDS011;51446;53.850;10.662;2022-09-13T13:07:20;3.25;;;0.80;;
64932;SDS011;51446;53.850;10.662;2022-09-13T13:09:47;5.38;;;0.85;;
64932;SDS011;51446;53.850;10.662;2022-09-13T13:12:30;5.27;;;0.87;;
64932;SDS011;51446;53.850;10.662;2022-09-13T13:20:45;3.60;;;0.90;;
64932;SDS011;51446;53.850;10.662;2022-09-13T13:33:47;3.67;;;0.80;;
64932;SDS011;51446;53.850;10.662;2022-09-13T13:36:23;5.78;;;0.85;;
64932;SDS011;51446;53.850;10.662;2022-09-13T13:38:53;5.03;;;0.93;;
64932;SDS011;51446;53.850;10.662;2022-09-13T13:43:57;6.43;;;1.13;;
64932;SDS011;51446;53.850;10.662;2022-09-13T13:46:44;4.47;;;1.00;;
64932;SDS011;51446;53.850;10.662;2022-09-13T13:57:20;4.43;;;0.80;;
64932;SDS011;51446;53.850;10.662;2022-09-13T13:59:54;6.85;;;0.90;;
64932;SDS011;51446;53.850;10.662;2022-09-13T14:02:24;7.80;;;1.20;;
64932;SDS011;51446;53.850;10.662;2022-09-13T14:13:16;5.45;;;1.30;;
64932;SDS011;51446;53.850;10.662;2022-09-13T14:15:52;6.38;;;1.02;;
64932;SDS011;51446;53.850;10.662;2022-09-13T14:21:43;10.85;;;1.70;;
64932;SDS011;51446;53.850;10.662;2022-09-13T14:24:17;5.63;;;1.00;;
64932;SDS011;51446;53.850;10.662;2022-09-13T14:26:45;6.15;;;0.93;;
64932;SDS011;51446;53.850;10.662;2022-09-13T14:29:14;5.90;;;1.23;;
64932;SDS011;51446;53.850;10.662;2022-09-13T14:31:44;6.87;;;1.37;;
64932;SDS011;51446;53.850;10.662;2022-09-13T14:34:21;8.13;;;1.27;;
64932;SDS011;51446;53.850;10.662;2022-09-13T14:37:00;8.30;;;1.40;;
64932;SDS011;51446;53.850;10.662;2022-09-13T14:39:28;6.45;;;1.20;;
64932;SDS011;51446;53.850;10.662;2022-09-13T14:41:58;5.75;;;1.00;;
64932;SDS011;51446;53.850;10.662;2022-09-13T14:44:26;5.93;;;1.13;;
64932;SDS011;51446;53.850;10.662;2022-09-13T14:49:32;5.95;;;1.42;;
64932;SDS011;51446;53.850;10.662;2022-09-13T14:52:14;8.90;;;1.20;;
64932;SDS011;51446;53.850;10.662;2022-09-13T14:54:48;10.25;;;1.50;;
64932;SDS011;51446;53.850;10.662;2022-09-13T14:57:22;4.27;;;1.00;;
64932;SDS011;51446;53.850;10.662;2022-09-13T14:59:53;5.72;;;1.38;;
64932;SDS011;51446;53.850;10.662;2022-09-13T15:02:24;6.93;;;1.90;;
64932;SDS011;51446;53.850;10.662;2022-09-13T15:04:54;8.23;;;1.30;;
64932;SDS011;51446;53.850;10.662;2022-09-13T15:07:29;3.10;;;1.20;;
64932;SDS011;51446;53.850;10.662;2022-09-13T15:09:57;6.97;;;1.63;;
64932;SDS011;51446;53.850;10.662;2022-09-13T15:12:33;6.18;;;1.50;;
64932;SDS011;51446;53.850;10.662;2022-09-13T15:18:05;4.83;;;1.03;;
64932;SDS011;51446;53.850;10.662;2022-09-13T15:20:54;9.82;;;1.20;;
64932;SDS011;51446;53.850;10.662;2022-09-13T15:23:32;8.95;;;1.40;;
64932;SDS011;51446;53.850;10.662;2022-09-13T15:26:04;7.88;;;1.23;;
64932;SDS011;51446;53.850;10.662;2022-09-13T15:28:33;8.07;;;1.48;;
64932;SDS011;51446;53.850;10.662;2022-09-13T15:31:23;4.47;;;1.00;;
64932;SDS011;51446;53.850;10.662;2022-09-13T15:36:40;5.95;;;1.38;;
64932;SDS011;51446;53.850;10.662;2022-09-13T15:39:14;8.97;;;1.23;;
64932;SDS011;51446;53.850;10.662;2022-09-13T15:41:57;5.05;;;1.20;;
64932;SDS011;51446;53.850;10.662;2022-09-13T15:44:26;7.47;;;1.40;;
64932;SDS011;51446;53.850;10.662;2022-09-13T15:46:58;6.70;;;1.23;;
64932;SDS011;51446;53.850;10.662;2022-09-13T15:49:26;6.63;;;1.30;;
64932;SDS011;51446;53.850;10.662;2022-09-13T15:51:57;5.03;;;1.50;;
64932;SDS011;51446;53.850;10.662;2022-09-13T15:54:31;5.75;;;1.15;;
64932;SDS011;51446;53.850;10.662;2022-09-13T15:56:58;8.90;;;1.40;;
64932;SDS011;51446;53.850;10.662;2022-09-13T15:59:23;5.47;;;1.33;;
64932;SDS011;51446;53.850;10.662;2022-09-13T16:01:49;7.53;;;1.43;;
64932;SDS011;51446;53.850;10.662;2022-09-13T16:04:16;8.55;;;1.40;;
64932;SDS011;51446;53.850;10.662;2022-09-13T16:06:42;10.13;;;1.30;;
64932;SDS011;51446;53.850;10.662;2022-09-13T16:09:26;7.10;;;1.60;;
64932;SDS011;51446;53.850;10.662;2022-09-13T16:11:52;9.15;;;1.45;;
64932;SDS011;51446;53.850;10.662;2022-09-13T16:14:17;7.07;;;1.27;;
64932;SDS011;51446;53.850;10.662;2022-09-13T16:16:43;5.30;;;1.23;;
64932;SDS011;51446;53.850;10.662;2022-09-13T16:19:13;8.05;;;1.38;;
64932;SDS011;51446;53.850;10.662;2022-09-13T16:21:40;7.38;;;1.25;;
64932;SDS011;51446;53.850;10.662;2022-09-13T16:24:05;5.77;;;1.37;;
64932;SDS011;51446;53.850;10.662;2022-09-13T16:26:30;6.13;;;1.47;;
64932;SDS011;51446;53.850;10.662;2022-09-13T16:28:57;5.35;;;1.10;;
64932;SDS011;51446;53.850;10.662;2022-09-13T16:31:23;5.40;;;1.10;;
64932;SDS011;51446;53.850;10.662;2022-09-13T16:33:48;7.20;;;1.30;;
64932;SDS011;51446;53.850;10.662;2022-09-13T16:36:13;10.27;;;1.50;;
64932;SDS011;51446;53.850;10.662;2022-09-13T16:38:39;7.20;;;1.67;;
64932;SDS011;51446;53.850;10.662;2022-09-13T16:41:05;8.07;;;1.27;;
64932;SDS011;51446;53.850;10.662;2022-09-13T16:43:31;8.23;;;1.45;;
64932;SDS011;51446;53.850;10.662;2022-09-13T16:45:57;7.73;;;1.00;;
64932;SDS011;51446;53.850;10.662;2022-09-13T16:48:23;6.30;;;1.48;;
64932;SDS011;51446;53.850;10.662;2022-09-13T16:50:48;3.93;;;1.17;;
64932;SDS011;51446;53.850;10.662;2022-09-13T16:53:14;6.77;;;1.47;;
64932;SDS011;51446;53.850;10.662;2022-09-13T16:55:39;8.60;;;1.43;;
64932;SDS011;51446;53.850;10.662;2022-09-13T16:58:04;6.53;;;1.60;;
64932;SDS011;51446;53.850;10.662;2022-09-13T17:00:29;5.37;;;1.70;;
64932;SDS011;51446;53.850;10.662;2022-09-13T17:02:55;9.23;;;1.43;;
64932;SDS011;51446;53.850;10.662;2022-09-13T17:05:22;5.05;;;1.33;;
64932;SDS011;51446;53.850;10.662;2022-09-13T17:07:49;5.87;;;1.40;;
64932;SDS011;51446;53.850;10.662;2022-09-13T17:10:15;7.68;;;1.30;;
64932;SDS011;51446;53.850;10.662;2022-09-13T17:12:40;5.50;;;1.40;;
64932;SDS011;51446;53.850;10.662;2022-09-13T17:15:06;8.30;;;1.40;;
64932;SDS011;51446;53.850;10.662;2022-09-13T17:17:32;8.85;;;1.40;;
64932;SDS011;51446;53.850;10.662;2022-09-13T17:20:00;7.30;;;1.60;;
64932;SDS011;51446;53.850;10.662;2022-09-13T17:22:32;5.22;;;1.30;;